createdAt,value
2022-12-06T00:00:04.009Z,10.87
2022-12-06T00:05:08.014Z,11.63
2022-12-06T00:10:13.275Z,11.40
2022-12-06T00:15:16.829Z,10.97
2022-12-06T00:20:20.550Z,12.03
2022-12-06T00:25:25.432Z,12.27
2022-12-06T00:30:29.398Z,11.30
2022-12-06T00:35:32.914Z,11.43
2022-12-06T00:40:37.949Z,9.43
2022-12-06T00:45:41.535Z,8.70
2022-12-06T00:50:45.017Z,8.30
2022-12-06T00:55:50.414Z,9.97
2022-12-06T01:00:54.038Z,10.77
2022-12-06T01:05:57.534Z,9.50
2022-12-06T01:11:02.798Z,10.83
2022-12-06T01:16:08.037Z,12.17
2022-12-06T01:21:13.865Z,12.10
2022-12-06T01:26:20.394Z,11.53
2022-12-06T01:31:24.082Z,13.70
2022-12-06T01:36:28.116Z,11.80
2022-12-06T01:41:33.081Z,12.40
2022-12-06T01:46:41.338Z,12.73
2022-12-06T01:51:50.547Z,16.13
2022-12-06T01:56:57.448Z,16.37
2022-12-06T02:02:01.036Z,15.40
2022-12-06T02:07:05.817Z,14.97
2022-12-06T02:12:16.855Z,14.93
2022-12-06T02:17:31.217Z,15.90
2022-12-06T02:23:16.603Z,15.90
2022-12-06T02:28:55.417Z,15.90
2022-12-06T02:34:05.413Z,15.87
2022-12-06T02:39:13.168Z,13.73
2022-12-06T02:44:28.497Z,13.43
2022-12-06T02:49:35.896Z,11.40
2022-12-06T02:54:40.657Z,10.30
2022-12-06T02:59:53.833Z,9.77
2022-12-06T03:05:17.751Z,9.47
2022-12-06T03:10:42.279Z,9.00
2022-12-06T03:15:54.481Z,8.20
2022-12-06T03:21:06.048Z,7.83
2022-12-06T03:26:15.001Z,8.73
2022-12-06T03:31:18.536Z,8.93
2022-12-06T03:36:25.994Z,8.20
2022-12-06T03:41:34.659Z,9.37
2022-12-06T03:46:42.577Z,7.97
2022-12-06T03:51:48.652Z,7.33
2022-12-06T03:56:52.183Z,7.40
2022-12-06T04:01:55.786Z,6.77
2022-12-06T04:07:00.743Z,6.00
2022-12-06T04:12:24.446Z,6.30
2022-12-06T04:17:45.180Z,7.20
2022-12-06T04:23:05.066Z,7.57
2022-12-06T04:28:25.657Z,6.80
2022-12-06T04:33:46.725Z,5.43
2022-12-06T04:38:51.747Z,6.30
2022-12-06T04:43:55.273Z,10.23
2022-12-06T04:48:58.793Z,9.07
2022-12-06T04:54:03.876Z,9.03
2022-12-06T04:59:07.497Z,8.77
2022-12-06T05:04:11.125Z,8.47
2022-12-06T05:09:16.715Z,8.23
2022-12-06T05:14:20.484Z,7.67
2022-12-06T05:19:24.024Z,7.70
2022-12-06T05:24:29.003Z,8.03
2022-12-06T05:29:32.671Z,6.77
2022-12-06T05:34:36.131Z,8.37
2022-12-06T05:39:41.162Z,7.63
2022-12-06T05:44:44.964Z,7.10
2022-12-06T05:49:48.400Z,6.90
2022-12-06T05:54:53.316Z,6.97
2022-12-06T05:59:56.900Z,6.30
2022-12-06T06:05:00.521Z,6.07
2022-12-06T06:10:06.750Z,6.53
2022-12-06T06:15:11.168Z,6.30
2022-12-06T06:20:15.451Z,6.03
2022-12-06T06:25:20.549Z,5.90
2022-12-06T06:30:24.561Z,6.03
2022-12-06T06:35:28.032Z,7.20
2022-12-06T06:40:33.222Z,6.13
2022-12-06T06:45:36.769Z,6.60
2022-12-06T06:50:40.511Z,6.73
2022-12-06T06:55:46.869Z,6.47
2022-12-06T07:00:54.671Z,6.10
2022-12-06T07:06:00.334Z,6.43
2022-12-06T07:11:05.773Z,6.30
2022-12-06T07:16:13.887Z,6.77
2022-12-06T07:21:18.812Z,6.00
2022-12-06T07:26:25.506Z,5.80
2022-12-06T07:31:30.737Z,5.20
2022-12-06T07:36:34.781Z,6.03
2022-12-06T07:41:56.750Z,6.10
2022-12-06T07:47:00.278Z,4.83
2022-12-06T07:52:03.754Z,7.90
2022-12-06T07:57:08.838Z,5.40
2022-12-06T08:02:19.315Z,6.00
2022-12-06T08:07:23.523Z,7.10
2022-12-06T08:12:30.789Z,6.77
2022-12-06T08:17:34.271Z,6.17
2022-12-06T08:22:37.958Z,5.87
2022-12-06T08:27:42.897Z,5.93
2022-12-06T08:32:46.432Z,6.80
2022-12-06T08:37:49.863Z,5.27
2022-12-06T08:42:54.762Z,7.17
2022-12-06T08:47:58.301Z,6.47
2022-12-06T08:53:01.758Z,5.53
2022-12-06T08:58:06.633Z,5.03
2022-12-06T09:03:10.137Z,5.17
2022-12-06T09:08:13.797Z,4.60
2022-12-06T09:13:19.249Z,4.63
2022-12-06T09:18:22.939Z,4.80
2022-12-06T09:23:26.446Z,4.87
2022-12-06T09:28:31.709Z,4.67
2022-12-06T09:33:35.881Z,4.37
2022-12-06T09:38:40.839Z,4.33
2022-12-06T09:44:01.747Z,5.63
2022-12-06T09:49:16.175Z,4.07
2022-12-06T09:54:35.044Z,3.70
2022-12-06T09:59:55.412Z,5.67
2022-12-06T10:05:13.389Z,3.17
2022-12-06T10:10:27.863Z,2.93
2022-12-06T10:15:43.284Z,2.40
2022-12-06T10:20:52.152Z,2.07
2022-12-06T10:26:06.392Z,1.70
2022-12-06T10:31:24.259Z,1.70
2022-12-06T10:36:40.220Z,1.97
2022-12-06T10:41:49.911Z,1.33
2022-12-06T10:47:08.035Z,1.77
2022-12-06T10:52:27.452Z,1.30
2022-12-06T10:57:37.956Z,1.53
2022-12-06T11:02:48.511Z,1.23
2022-12-06T11:07:57.529Z,1.13
2022-12-06T11:13:11.314Z,1.93
2022-12-06T11:18:19.041Z,2.30
2022-12-06T11:23:27.325Z,1.63
2022-12-06T11:28:39.164Z,1.30
2022-12-06T11:33:44.306Z,1.70
2022-12-06T11:38:49.079Z,1.67
2022-12-06T11:43:54.010Z,2.23
2022-12-06T11:49:06.796Z,1.20
2022-12-06T11:54:24.071Z,1.40
2022-12-06T11:59:29.842Z,1.37
2022-12-06T12:04:40.767Z,1.10
2022-12-06T12:09:52.195Z,0.73
2022-12-06T12:14:59.862Z,0.60
2022-12-06T12:20:08.786Z,0.53
2022-12-06T12:25:26.303Z,0.73
2022-12-06T12:30:35.644Z,0.47
2022-12-06T12:35:42.720Z,0.60
2022-12-06T12:40:48.620Z,0.60
2022-12-06T12:46:08.400Z,0.40
2022-12-06T12:51:25.496Z,0.70
2022-12-06T12:56:38.252Z,0.70
2022-12-06T13:01:47.257Z,1.23
2022-12-06T13:06:56.536Z,0.90
2022-12-06T13:12:04.691Z,0.50
2022-12-06T13:17:10.060Z,0.30
2022-12-06T13:22:20.332Z,0.50
2022-12-06T13:27:25.164Z,0.83
2022-12-06T13:32:33.704Z,0.47
2022-12-06T13:37:44.897Z,0.70
2022-12-06T13:42:48.405Z,0.97
2022-12-06T13:47:52.547Z,0.70
2022-12-06T13:53:04.441Z,1.53
2022-12-06T13:58:50.543Z,1.03
2022-12-06T14:03:58.006Z,1.27
2022-12-06T14:09:03.096Z,1.80
2022-12-06T14:14:09.251Z,2.77
2022-12-06T14:19:19.710Z,2.60
2022-12-06T14:24:34.734Z,1.63
2022-12-06T14:29:38.478Z,1.50
2022-12-06T14:34:42.022Z,0.97
2022-12-06T14:39:52.532Z,2.70
2022-12-06T14:45:01.968Z,1.50
2022-12-06T14:50:26.552Z,1.50
2022-12-06T14:55:33.512Z,2.30
2022-12-06T15:00:40.562Z,1.90
2022-12-06T15:05:45.938Z,1.80
2022-12-06T15:10:57.571Z,2.60
2022-12-06T15:16:13.139Z,2.57
2022-12-06T15:21:19.105Z,6.60
2022-12-06T15:26:25.679Z,8.30
2022-12-06T15:31:37.840Z,3.77
2022-12-06T15:36:41.317Z,3.33
2022-12-06T15:41:47.248Z,2.53
2022-12-06T15:46:51.062Z,2.37
2022-12-06T15:51:54.692Z,1.80
2022-12-06T15:56:59.611Z,3.03
2022-12-06T16:02:03.221Z,1.50
2022-12-06T16:07:06.749Z,2.27
2022-12-06T16:12:12.316Z,2.83
2022-12-06T16:17:15.798Z,3.07
2022-12-06T16:22:39.802Z,3.43
2022-12-06T16:27:44.924Z,1.60
2022-12-06T16:32:48.908Z,1.57
2022-12-06T16:37:52.532Z,1.80
2022-12-06T16:42:57.440Z,2.27
2022-12-06T16:48:01.013Z,1.63
2022-12-06T16:53:06.042Z,1.43
2022-12-06T16:58:14.019Z,2.47
2022-12-06T17:03:20.571Z,1.73
2022-12-06T17:08:25.477Z,1.67
2022-12-06T17:13:31.962Z,1.80
2022-12-06T17:18:36.762Z,1.73
2022-12-06T17:23:41.860Z,1.60
2022-12-06T17:28:49.622Z,2.60
2022-12-06T17:33:53.978Z,2.40
2022-12-06T17:39:01.888Z,3.40
2022-12-06T17:44:09.128Z,2.43
2022-12-06T17:49:17.038Z,1.90
2022-12-06T17:54:21.336Z,2.17
2022-12-06T17:59:28.945Z,3.63
2022-12-06T18:04:34.858Z,2.53
2022-12-06T18:09:38.929Z,2.90
2022-12-06T18:14:44.477Z,3.67
2022-12-06T18:19:48.562Z,2.17
2022-12-06T18:24:52.996Z,2.30
2022-12-06T18:29:59.410Z,2.90
2022-12-06T18:35:03.969Z,1.80
2022-12-06T18:40:10.175Z,3.63
2022-12-06T18:45:17.957Z,6.03
2022-12-06T18:50:23.447Z,9.37
2022-12-06T18:55:32.144Z,1.90
2022-12-06T19:00:41.472Z,2.27
2022-12-06T19:06:02.318Z,2.20
2022-12-06T19:11:08.593Z,2.30
2022-12-06T19:16:15.781Z,2.33
2022-12-06T19:21:20.698Z,2.83
2022-12-06T19:26:26.391Z,4.50
2022-12-06T19:31:37.310Z,3.30
2022-12-06T19:36:42.408Z,2.47
2022-12-06T19:42:04.795Z,2.40
2022-12-06T19:47:12.406Z,2.07
2022-12-06T19:52:18.883Z,2.67
2022-12-06T19:57:24.579Z,3.70
2022-12-06T20:02:31.777Z,3.00
2022-12-06T20:07:36.263Z,3.00
2022-12-06T20:12:42.995Z,4.57
2022-12-06T20:17:49.871Z,3.33
2022-12-06T20:22:55.468Z,2.80
2022-12-06T20:28:03.212Z,2.90
2022-12-06T20:33:14.887Z,4.03
2022-12-06T20:38:19.634Z,3.60
2022-12-06T20:43:24.260Z,3.83
2022-12-06T20:48:30.517Z,4.27
2022-12-06T20:53:36.170Z,4.63
2022-12-06T20:58:41.973Z,5.20
2022-12-06T21:03:47.784Z,5.63
2022-12-06T21:08:52.532Z,4.53
2022-12-06T21:13:58.603Z,4.77
2022-12-06T21:19:05.759Z,4.40
2022-12-06T21:24:13.771Z,4.43
2022-12-06T21:29:20.120Z,5.90
2022-12-06T21:34:26.126Z,3.90
2022-12-06T21:39:29.613Z,4.83
2022-12-06T21:44:33.117Z,4.57
2022-12-06T21:49:38.178Z,5.30
2022-12-06T21:54:41.600Z,4.67
2022-12-06T21:59:44.982Z,5.40
2022-12-06T22:04:49.853Z,6.57
2022-12-06T22:09:53.276Z,5.27
2022-12-06T22:14:56.771Z,5.70
2022-12-06T22:20:01.919Z,5.13
2022-12-06T22:25:06.130Z,7.00
2022-12-06T22:30:11.085Z,5.10
2022-12-06T22:35:17.648Z,6.27
2022-12-06T22:40:21.085Z,5.30
2022-12-06T22:45:24.659Z,6.07
2022-12-06T22:50:29.610Z,6.60
2022-12-06T22:55:33.467Z,4.97
2022-12-06T23:00:37.009Z,5.23
2022-12-06T23:05:41.890Z,6.00
2022-12-06T23:10:45.459Z,5.37
2022-12-06T23:15:56.992Z,7.03
2022-12-06T23:21:06.989Z,8.73
2022-12-06T23:26:13.734Z,5.20
2022-12-06T23:31:22.260Z,5.03
2022-12-06T23:36:29.837Z,5.23
2022-12-06T23:41:34.450Z,6.30
2022-12-06T23:46:39.767Z,6.07
2022-12-06T23:51:44.907Z,5.70
2022-12-06T23:56:48.898Z,5.43
